Time;durP1;ratioP1;P1;durP2;ratioP2;P2;SDS_P1;SDS_P2;PMS_P1;PMS_P2;Temp;Humidity;BMP_temperature;BMP_pressure;BME280_temperature;BME280_humidity;BME280_pressure;Samples;Min_cycle;Max_cycle;Signal;HPM_P1;HPM_P2
2022/04/23 00:02:23;;;;;;;15.27;11.05;;;;;;;9.29;56.08;99671.25;4882994;28;96771;-82
2022/04/23 00:04:49;;;;;;;13.88;9.77;;;;;;;9.06;56.13;99634.66;4865749;28;101280;-82
2022/04/23 00:07:14;;;;;;;12.90;9.60;;;;;;;9.13;56.27;99654.44;4865557;28;100977;-83
2022/04/23 00:09:40;;;;;;;11.98;9.13;;;;;;;9.12;56.41;99652.72;4866007;28;96651;-82
2022/04/23 00:12:06;;;;;;;15.82;10.40;;;;;;;9.18;56.67;99665.59;4881808;28;97018;-83
2022/04/23 00:14:34;;;;;;;14.02;10.07;;;;;;;9.23;56.26;99666.25;4865842;28;101262;-82
2022/04/23 00:17:00;;;;;;;13.55;9.90;;;;;;;9.34;56.10;99680.69;4866997;28;101447;-81
2022/04/23 00:19:26;;;;;;;13.52;9.18;;;;;;;9.22;56.12;99677.66;4881789;28;97291;-82
2022/04/23 00:21:51;;;;;;;16.02;10.35;;;;;;;9.23;56.01;99665.41;4866635;28;97141;-83
2022/04/23 00:24:18;;;;;;;12.77;9.55;;;;;;;9.14;56.15;99655.31;4880820;28;98441;-82
2022/04/23 00:26:44;;;;;;;13.15;9.52;;;;;;;8.98;55.91;99632.31;4881892;28;97330;-82
2022/04/23 00:29:09;;;;;;;16.30;10.40;;;;;;;8.94;56.39;99641.19;4865175;28;96770;-81
2022/04/23 00:31:36;;;;;;;11.93;9.20;;;;;;;9.00;56.39;99658.44;4882042;28;96985;-83
2022/04/23 00:34:02;;;;;;;12.65;9.65;;;;;;;9.01;56.66;99660.97;4864905;28;101593;-82
2022/04/23 00:36:28;;;;;;;14.63;9.95;;;;;;;8.99;55.72;99641.03;4865805;28;101231;-82
2022/04/23 00:38:54;;;;;;;15.52;10.40;;;;;;;9.05;56.31;99667.84;4897341;28;97198;-83
2022/04/23 00:44:05;;;;;;;14.00;10.02;;;;;;;8.99;56.49;99670.69;4882492;28;102090;-82
2022/04/23 00:46:31;;;;;;;13.75;8.95;;;;;;;9.00;56.79;99672.38;4865926;28;100848;-82
2022/04/23 00:48:58;;;;;;;15.88;10.45;;;;;;;8.89;56.02;99660.59;4864786;28;96831;-83
2022/04/23 00:51:25;;;;;;;12.88;9.60;;;;;;;8.82;56.35;99667.84;4865785;28;96842;-82
2022/04/23 00:53:51;;;;;;;12.88;9.20;;;;;;;8.86;56.39;99661.56;4878701;28;101085;-83
2022/04/23 00:56:17;;;;;;;14.15;9.45;;;;;;;8.74;56.70;99662.88;4881057;28;101365;-82
2022/04/23 00:58:43;;;;;;;13.27;9.10;;;;;;;8.83;56.61;99672.16;4865262;28;96941;-83
2022/04/23 01:01:09;;;;;;;14.68;9.20;;;;;;;8.70;57.03;99652.59;4865408;28;96888;-82
2022/04/23 01:03:36;;;;;;;14.38;9.13;;;;;;;8.86;56.68;99677.28;4880820;28;101371;-83
2022/04/23 01:06:02;;;;;;;15.60;10.48;;;;;;;8.70;56.38;99629.91;4864756;28;100779;-83
2022/04/23 01:08:27;;;;;;;14.57;8.80;;;;;;;8.87;56.73;99667.66;4881477;28;97228;-82
2022/04/23 01:10:53;;;;;;;13.07;9.15;;;;;;;8.75;56.52;99659.34;4880758;28;97024;-82
2022/04/23 01:13:18;;;;;;;13.77;10.48;;;;;;;8.56;56.66;99626.94;4896255;28;98511;-83
2022/04/23 01:16:07;;;;;;;12.20;8.93;;;;;;;8.64;56.71;99637.09;4880522;28;101446;-84
2022/04/23 01:18:34;;;;;;;12.73;9.40;;;;;;;8.77;56.91;99654.91;4865518;28;96646;-83
2022/04/23 01:21:04;;;;;;;15.02;9.52;;;;;;;8.81;56.69;99659.16;4864822;28;96885;-83
2022/04/23 01:23:30;;;;;;;13.93;9.70;;;;;;;8.79;56.76;99658.34;4880955;28;100096;-83
2022/04/23 01:25:57;;;;;;;15.32;9.55;;;;;;;8.77;56.96;99664.53;4880745;28;100538;-82
2022/04/23 01:28:23;;;;;;;14.63;9.95;;;;;;;8.63;56.48;99636.25;4864611;28;96738;-82
2022/04/23 01:30:54;;;;;;;14.68;10.10;;;;;;;8.68;56.70;99636.09;4865040;28;96824;-82
2022/04/23 01:33:20;;;;;;;13.75;9.93;;;;;;;8.72;56.70;99654.22;4880038;28;101672;-84
2022/04/23 01:35:46;;;;;;;17.67;10.38;;;;;;;8.79;56.24;99657.50;4880392;28;97781;-82
2022/04/23 01:38:12;;;;;;;15.52;9.90;;;;;;;8.70;56.33;99650.84;4879773;28;96630;-82
2022/04/23 01:40:38;;;;;;;14.10;9.70;;;;;;;8.68;56.87;99664.88;4896539;28;98076;-82
2022/04/23 01:43:04;;;;;;;14.55;9.35;;;;;;;8.69;56.77;99651.72;4879659;28;101616;-84
2022/04/23 01:45:30;;;;;;;14.18;9.82;;;;;;;8.68;56.41;99663.13;4880192;28;100016;-82
2022/04/23 01:47:56;;;;;;;13.55;9.32;;;;;;;8.64;56.46;99658.91;4881107;28;96618;-82
2022/04/23 01:50:22;;;;;;;13.55;10.07;;;;;;;8.66;57.11;99659.69;4879686;28;96933;-83
2022/04/23 01:52:47;;;;;;;16.30;10.23;;;;;;;8.68;56.81;99664.88;4896371;28;97946;-82
2022/04/23 01:55:13;;;;;;;14.02;9.05;;;;;;;8.60;57.00;99655.53;4880065;28;101909;-82
2022/04/23 01:57:39;;;;;;;11.57;8.93;;;;;;;8.56;57.00;99653.09;4880723;28;97848;-82
2022/04/23 02:00:10;;;;;;;13.02;9.10;;;;;;;8.35;56.86;99623.31;4879775;28;98055;-86
2022/04/23 02:02:38;;;;;;;13.05;9.50;;;;;;;8.63;56.85;99649.34;4877526;28;97843;-82
2022/04/23 02:05:05;;;;;;;12.48;9.68;;;;;;;8.42;57.15;99624.81;4879642;28;101354;-81
2022/04/23 02:07:30;;;;;;;13.07;10.15;;;;;;;8.47;56.75;99627.28;4880982;28;96664;-82
2022/04/23 02:09:56;;;;;;;14.40;9.90;;;;;;;8.62;56.53;99647.63;4880186;28;96889;-82
2022/04/23 02:12:21;;;;;;;13.07;8.98;;;;;;;8.50;56.83;99640.25;4879728;28;101365;-82
2022/04/23 02:14:48;;;;;;;16.48;10.20;;;;;;;8.54;57.47;99645.28;4863888;28;101493;-82
2022/04/23 02:17:14;;;;;;;13.45;9.65;;;;;;;8.36;56.87;99625.84;4880149;28;96636;-82
2022/04/23 02:19:40;;;;;;;14.95;10.50;;;;;;;8.55;56.70;99643.53;4880117;28;97128;-82
2022/04/23 02:22:05;;;;;;;13.60;9.75;;;;;;;8.43;56.76;99618.66;4864340;28;101067;-82
2022/04/23 02:24:31;;;;;;;14.07;10.40;;;;;;;8.42;56.85;99627.44;4878620;28;101606;-83
2022/04/23 02:26:57;;;;;;;12.88;9.93;;;;;;;8.43;57.03;99636.97;4892100;28;97159;-82
2022/04/23 02:29:22;;;;;;;13.05;9.88;;;;;;;8.39;57.41;99638.00;4860966;28;97243;-82
2022/04/23 02:31:48;;;;;;;13.70;9.05;;;;;;;8.48;56.90;99642.91;4877274;28;97881;-83
2022/04/23 02:34:14;;;;;;;15.82;10.95;;;;;;;8.20;57.32;99616.84;4859609;28;101449;-82
2022/04/23 02:36:39;;;;;;;15.32;10.48;;;;;;;8.25;57.30;99640.22;4845708;28;96686;-83
2022/04/23 02:39:05;;;;;;;17.27;10.15;;;;;;;8.27;57.87;99635.81;4861012;28;96810;-82
2022/04/23 02:41:30;;;;;;;13.63;9.98;;;;;;;8.16;57.47;99628.31;4860465;28;97745;-83
2022/04/23 02:43:57;;;;;;;14.30;9.15;;;;;;;8.25;57.51;99648.91;4875939;28;98334;-83
2022/04/23 02:46:24;;;;;;;12.73;9.52;;;;;;;7.91;57.47;99597.84;4860815;28;97717;-82
2022/04/23 02:48:49;;;;;;;16.13;9.30;;;;;;;8.20;57.58;99650.84;4860793;28;96806;-82
2022/04/23 02:51:16;;;;;;;15.90;9.65;;;;;;;8.10;57.84;99642.47;4891611;28;101234;-82
2022/04/23 02:53:43;;;;;;;14.30;9.63;;;;;;;8.20;57.40;99640.38;4860424;28;101721;-83
2022/04/23 02:56:13;;;;;;;13.45;9.65;;;;;;;7.97;57.41;99604.59;4860521;28;96690;-86
2022/04/23 02:58:42;;;;;;;13.15;9.77;;;;;;;7.99;57.48;99621.06;4861082;28;96745;-81
2022/04/23 03:01:10;;;;;;;11.45;9.45;;;;;;;8.10;58.26;99650.31;4860497;28;101789;-83
2022/04/23 03:03:43;;;;;;;19.23;10.18;;;;;;;8.10;57.71;99647.69;4860221;28;99706;-83
2022/04/23 03:06:09;;;;;;;13.23;9.73;;;;;;;7.98;57.40;99614.16;4861187;28;96933;-82
2022/04/23 03:08:38;;;;;;;14.98;10.15;;;;;;;8.00;57.70;99622.78;4845039;28;96988;-83
2022/04/23 03:11:06;;;;;;;13.85;9.40;;;;;;;8.09;57.49;99627.69;4860327;28;101814;-82
2022/04/23 03:13:34;;;;;;;17.60;9.57;;;;;;;8.21;57.60;99656.94;4891619;28;101362;-82
2022/04/23 03:15:59;;;;;;;14.25;10.10;;;;;;;8.20;57.69;99665.66;4859915;28;97148;-82
2022/04/23 03:18:26;;;;;;;14.65;9.65;;;;;;;7.90;58.03;99624.84;4859985;28;97519;-82
2022/04/23 03:20:52;;;;;;;16.88;10.20;;;;;;;7.99;58.02;99656.81;4891448;28;101347;-82
2022/04/23 03:23:19;;;;;;;16.08;11.20;;;;;;;8.05;57.79;99667.91;4859772;28;101232;-82
2022/04/23 03:25:45;;;;;;;17.10;10.25;;;;;;;8.13;58.08;99671.13;4860002;28;97208;-82
2022/04/23 03:28:13;;;;;;;14.07;9.38;;;;;;;7.82;58.13;99642.53;4860289;28;97819;-83
2022/04/23 03:30:40;;;;;;;14.18;10.35;;;;;;;7.75;57.72;99633.22;4876688;28;97981;-82
2022/04/23 03:33:05;;;;;;;17.65;10.25;;;;;;;7.96;57.94;99670.84;4860007;28;101254;-82
2022/04/23 03:35:31;;;;;;;13.57;9.45;;;;;;;7.90;58.28;99671.88;4890767;28;96737;-82
2022/04/23 03:37:58;;;;;;;24.50;11.02;;;;;;;7.86;58.01;99664.22;4844568;28;96862;-82
2022/04/23 03:40:24;;;;;;;21.40;10.93;;;;;;;7.76;58.58;99661.03;4906341;28;98033;-82
2022/04/23 03:42:50;;;;;;;18.38;10.80;;;;;;;7.87;58.43;99673.75;4874987;28;101356;-82
2022/04/23 03:45:19;;;;;;;18.35;10.15;;;;;;;7.78;58.47;99666.22;4843799;28;96634;-83
2022/04/23 03:47:48;;;;;;;13.27;9.88;;;;;;;7.78;58.06;99669.69;4876243;28;96818;-82
2022/04/23 03:50:15;;;;;;;16.02;10.00;;;;;;;7.85;58.53;99689.50;4859187;28;101391;-84
2022/04/23 03:52:41;;;;;;;12.98;9.50;;;;;;;7.88;57.92;99689.41;4907441;28;98443;-82
2022/04/23 03:55:07;;;;;;;15.80;10.23;;;;;;;7.79;58.22;99671.38;4860206;28;96606;-82
2022/04/23 03:57:45;;;;;;;16.90;10.63;;;;;;;7.77;58.31;99688.03;4908296;28;96874;-81
2022/04/23 04:00:11;;;;;;;15.20;10.73;;;;;;;7.47;58.46;99634.09;4875286;28;101489;-82
2022/04/23 04:02:37;;;;;;;17.30;10.65;;;;;;;7.71;58.32;99662.97;4860841;28;98508;-81
2022/04/23 04:05:04;;;;;;;15.13;9.98;;;;;;;7.80;58.26;99685.34;4877330;28;97229;-81
2022/04/23 04:07:30;;;;;;;14.23;10.50;;;;;;;7.77;58.36;99690.66;4861838;28;96723;-81
2022/04/23 04:09:55;;;;;;;15.10;10.07;;;;;;;7.79;58.10;99678.38;4861771;28;101356;-81
2022/04/23 04:12:21;;;;;;;21.30;11.60;;;;;;;7.76;58.08;99665.41;4866493;28;101671;-81
2022/04/23 04:14:48;;;;;;;17.50;10.80;;;;;;;7.74;58.44;99685.50;4877367;28;96726;-82
2022/04/23 04:17:15;;;;;;;17.23;11.43;;;;;;;7.38;58.78;99639.63;4859542;28;96863;-82
2022/04/23 04:19:40;;;;;;;15.40;10.20;;;;;;;7.55;58.41;99661.75;4859189;28;101108;-82
2022/04/23 04:22:08;;;;;;;23.42;10.77;;;;;;;7.72;58.63;99672.50;4875849;28;98382;-83
2022/04/23 04:24:35;;;;;;;20.08;10.20;;;;;;;7.70;58.96;99688.22;4858990;28;96700;-82
2022/04/23 04:27:00;;;;;;;16.27;10.75;;;;;;;7.58;58.60;99659.88;4891302;28;96818;-82
2022/04/23 04:29:26;;;;;;;16.35;10.70;;;;;;;7.68;58.61;99678.75;4873984;28;100976;-82
2022/04/23 04:31:52;;;;;;;15.98;10.65;;;;;;;7.78;58.93;99680.13;4875122;28;98532;-83
2022/04/23 04:34:21;;;;;;;15.73;11.48;;;;;;;7.76;58.83;99671.50;4858931;28;96751;-82
2022/04/23 04:36:48;;;;;;;18.10;11.80;;;;;;;7.83;59.11;99680.00;4875595;28;96851;-82
2022/04/23 04:39:15;;;;;;;18.38;11.30;;;;;;;7.91;59.06;99681.47;4858622;28;101241;-82
2022/04/23 04:41:40;;;;;;;24.50;12.40;;;;;;;7.93;58.93;99644.81;4858962;28;101383;-83
2022/04/23 04:44:07;;;;;;;19.15;11.15;;;;;;;8.11;59.02;99688.59;4858379;28;96679;-82
2022/04/23 04:46:33;;;;;;;21.45;11.55;;;;;;;8.09;59.36;99677.38;4892684;28;96662;-83
2022/04/23 04:48:59;;;;;;;21.00;12.35;;;;;;;8.26;58.98;99686.38;4877465;28;101491;-82
2022/04/23 04:51:25;;;;;;;17.38;11.55;;;;;;;8.39;59.52;99706.00;4893904;28;101661;-82
2022/04/23 04:53:53;;;;;;;19.45;12.20;;;;;;;8.41;59.38;99706.81;4861634;28;97003;-82
2022/04/23 04:56:20;;;;;;;17.70;12.30;;;;;;;8.50;59.57;99714.34;4862917;28;96846;-83
2022/04/23 04:58:46;;;;;;;16.33;11.95;;;;;;;8.64;59.61;99708.63;4893338;28;100101;-82
2022/04/23 05:01:12;;;;;;;16.15;11.38;;;;;;;8.78;58.67;99718.56;4878082;28;98361;-82
2022/04/23 05:03:39;;;;;;;19.98;11.80;;;;;;;8.90;58.77;99712.03;4861969;28;96737;-82
2022/04/23 05:06:06;;;;;;;14.88;11.20;;;;;;;9.06;58.36;99715.81;4862768;28;96845;-82
2022/04/23 05:08:32;;;;;;;17.38;11.27;;;;;;;9.02;58.25;99691.50;4861462;28;101762;-82
2022/04/23 05:10:57;;;;;;;16.52;11.55;;;;;;;9.35;58.33;99719.94;4862119;28;101344;-81
2022/04/23 05:13:23;;;;;;;15.45;11.43;;;;;;;9.11;57.66;99652.81;4862169;28;96598;-82
2022/04/23 05:15:48;;;;;;;16.38;11.80;;;;;;;9.66;57.96;99709.13;4877817;28;97041;-81
2022/04/23 05:18:14;;;;;;;17.25;12.43;;;;;;;9.91;57.36;99715.97;4877587;28;98032;-82
2022/04/23 05:20:40;;;;;;;20.27;11.88;;;;;;;10.12;57.00;99709.88;4861252;28;101397;-81
2022/04/23 05:23:06;;;;;;;18.63;13.20;;;;;;;10.19;56.61;99689.47;4877866;28;96668;-81
2022/04/23 05:25:32;;;;;;;19.63;12.07;;;;;;;10.42;56.75;99704.25;4877315;28;96895;-81
2022/04/23 05:27:58;;;;;;;18.42;12.35;;;;;;;10.55;56.11;99707.19;4861657;28;101726;-81
2022/04/23 05:30:24;;;;;;;20.40;12.82;;;;;;;10.77;55.20;99710.59;4860785;28;99531;-82
2022/04/23 05:32:49;;;;;;;19.63;13.30;;;;;;;10.97;55.04;99714.09;4877620;28;96684;-81
2022/04/23 05:35:15;;;;;;;21.30;14.15;;;;;;;11.16;53.26;99706.22;4861968;28;96876;-83
2022/04/23 05:37:40;;;;;;;25.40;15.93;;;;;;;11.33;52.22;99690.53;4861246;28;101194;-81
2022/04/23 05:40:07;;;;;;;20.20;14.63;;;;;;;11.57;51.10;99697.22;4861250;28;100801;-81
2022/04/23 05:42:33;;;;;;;21.70;15.35;;;;;;;11.90;50.99;99711.50;4910840;28;98746;-81
2022/04/23 05:44:59;;;;;;;19.00;14.60;;;;;;;12.18;50.16;99708.34;4896115;28;96758;-82
2022/04/23 05:47:25;;;;;;;23.13;16.95;;;;;;;12.33;50.34;99706.72;4864006;28;101185;-81
2022/04/23 05:49:50;;;;;;;20.17;15.55;;;;;;;12.63;50.00;99710.41;4895872;28;101566;-81
2022/04/23 05:52:16;;;;;;;20.08;15.82;;;;;;;12.96;48.63;99703.44;4864714;28;96617;-82
2022/04/23 05:54:41;;;;;;;21.17;16.65;;;;;;;13.25;48.72;99699.22;4863864;28;96922;-81
2022/04/23 05:57:07;;;;;;;24.45;16.95;;;;;;;13.57;47.39;99700.09;4848625;28;101672;-82
2022/04/23 05:59:32;;;;;;;19.33;15.00;;;;;;;13.86;47.33;99695.81;4879233;28;100528;-81
2022/04/23 06:02:00;;;;;;;16.60;13.75;;;;;;;14.09;46.51;99683.94;4864587;28;96827;-81
2022/04/23 06:04:26;;;;;;;20.02;15.23;;;;;;;14.26;45.71;99693.50;4863525;28;96856;-82
2022/04/23 06:06:52;;;;;;;16.67;14.32;;;;;;;14.41;44.35;99694.38;4879503;28;101734;-81
2022/04/23 06:09:17;;;;;;;20.40;13.73;;;;;;;14.42;44.59;99694.25;4879765;28;97893;-82
2022/04/23 06:11:43;;;;;;;17.13;12.60;;;;;;;14.90;45.02;99705.47;4864563;28;96603;-81
2022/04/23 06:14:09;;;;;;;19.38;13.07;;;;;;;15.10;43.97;99706.91;4864021;28;96897;-80
2022/04/23 06:16:37;;;;;;;15.77;12.45;;;;;;;15.43;43.94;99707.50;4879643;28;97632;-81
2022/04/23 06:19:04;;;;;;;13.73;11.07;;;;;;;15.76;41.98;99713.28;4863855;28;101405;-81
2022/04/23 06:21:29;;;;;;;11.38;9.25;;;;;;;15.78;41.16;99695.50;4912305;28;96671;-81
2022/04/23 06:23:55;;;;;;;11.57;10.38;;;;;;;15.54;41.27;99707.66;4895540;28;97146;-82
2022/04/23 06:26:20;;;;;;;11.00;9.52;;;;;;;15.39;41.71;99683.06;4863788;28;101707;-81
2022/04/23 06:28:46;;;;;;;10.75;8.82;;;;;;;15.85;41.25;99711.84;4847133;28;101574;-82
2022/04/23 06:31:11;;;;;;;13.43;10.48;;;;;;;16.16;40.26;99691.28;4863733;28;97210;-81
2022/04/23 06:33:37;;;;;;;12.32;9.35;;;;;;;16.32;40.03;99681.38;4863435;28;96984;-82
2022/04/23 06:36:03;;;;;;;12.13;9.98;;;;;;;16.21;39.67;99678.59;4879854;28;97956;-81
2022/04/23 06:38:28;;;;;;;10.23;8.95;;;;;;;16.66;39.43;99706.38;4894872;28;97746;-82
2022/04/23 06:40:54;;;;;;;12.25;9.00;;;;;;;16.68;38.60;99659.44;4911495;28;97149;-81
2022/04/23 06:43:19;;;;;;;12.23;9.88;;;;;;;16.73;38.64;99653.81;4863478;28;96886;-81
2022/04/23 06:45:45;;;;;;;10.27;8.57;;;;;;;17.06;38.94;99665.66;4847469;28;101693;-81
2022/04/23 06:48:11;;;;;;;10.45;8.77;;;;;;;17.82;37.62;99680.50;4879625;28;101789;-82
2022/04/23 06:50:36;;;;;;;9.45;7.85;;;;;;;18.38;36.99;99693.97;4879580;28;98079;-82
2022/04/23 06:53:03;;;;;;;10.57;8.68;;;;;;;18.59;35.97;99687.97;4897078;28;96749;-81
2022/04/23 06:55:29;;;;;;;10.68;7.68;;;;;;;18.97;36.36;99688.53;4894184;28;97831;-82
2022/04/23 06:57:54;;;;;;;8.88;7.90;;;;;;;19.57;36.14;99690.84;4894880;28;100966;-81
2022/04/23 07:00:22;;;;;;;8.05;6.82;;;;;;;19.82;34.83;99676.44;4863432;28;98385;-82
2022/04/23 07:02:51;;;;;;;10.60;7.55;;;;;;;20.07;34.43;99685.88;4879468;28;98510;-82
2022/04/23 07:05:17;;;;;;;12.10;7.13;;;;;;;20.52;33.75;99686.50;4878918;28;101463;-81
2022/04/23 07:08:01;;;;;;;9.25;7.15;;;;;;;20.78;33.55;99684.25;4879143;28;97849;-81
2022/04/23 07:10:29;;;;;;;12.18;7.55;;;;;;;20.77;33.53;99665.75;4863374;28;96620;-82
2022/04/23 07:12:55;;;;;;;8.35;7.35;;;;;;;21.29;32.64;99681.63;4879611;28;96988;-80
2022/04/23 07:15:22;;;;;;;11.82;7.32;;;;;;;20.97;31.97;99675.53;4863156;28;97524;-82
2022/04/23 07:17:49;;;;;;;7.20;6.50;;;;;;;20.89;32.43;99671.84;4862843;28;100839;-81
2022/04/23 07:20:16;;;;;;;7.22;6.50;;;;;;;21.16;32.16;99674.72;4894239;28;96575;-81
2022/04/23 07:24:02;;;;;;;12.20;7.30;;;;;;;21.69;31.67;99671.78;4863193;28;97143;-82
2022/04/23 07:25:35;;;;;;;13.93;9.05;;;;;;;22.39;31.78;99674.31;4864744;28;101153;-82
2022/04/23 07:28:01;;;;;;;13.73;9.57;;;;;;;22.86;31.51;99660.09;4894534;28;100985;-81
2022/04/23 07:30:28;;;;;;;10.82;9.73;;;;;;;22.79;30.79;99644.63;4911030;28;96848;-82
2022/04/23 07:32:55;;;;;;;11.95;9.95;;;;;;;23.24;30.62;99672.47;4878708;28;97132;-82
2022/04/23 07:38:16;;;;;;;11.35;9.75;;;;;;;23.63;30.17;99672.25;4892721;28;101379;-82
2022/04/23 07:40:51;;;;;;;12.45;9.02;;;;;;;24.02;29.83;99671.97;4878827;28;96781;-81
2022/04/23 07:43:17;;;;;;;9.05;5.80;;;;;;;24.35;28.30;99665.06;4895081;28;97134;-82
2022/04/23 07:45:44;;;;;;;7.97;6.30;;;;;;;24.67;27.42;99658.22;4895803;28;100197;-83
2022/04/23 07:48:11;;;;;;;6.97;6.28;;;;;;;24.71;27.19;99659.59;4895488;28;98062;-80
2022/04/23 07:50:39;;;;;;;7.45;5.90;;;;;;;24.49;27.63;99661.81;4878501;28;97176;-83
2022/04/23 07:53:05;;;;;;;8.82;5.97;;;;;;;24.91;27.07;99650.31;4895023;28;96958;-82
2022/04/23 07:55:38;;;;;;;16.92;6.68;;;;;;;25.11;26.33;99652.75;4894017;28;97823;-84
2022/04/23 07:58:04;;;;;;;7.80;5.95;;;;;;;25.34;26.62;99650.31;4894069;28;101247;-82
2022/04/23 08:00:31;;;;;;;6.78;5.72;;;;;;;25.64;26.35;99648.91;4894375;28;96715;-80
2022/04/23 08:02:58;;;;;;;6.60;5.45;;;;;;;25.45;26.47;99632.09;4863347;28;97208;-82
2022/04/23 08:05:24;;;;;;;7.00;5.38;;;;;;;25.70;25.97;99627.56;4896412;28;101903;-83
2022/04/23 08:07:49;;;;;;;6.28;5.28;;;;;;;25.79;26.51;99647.25;4884365;28;96665;-82
2022/04/23 08:10:15;;;;;;;7.03;5.50;;;;;;;25.90;25.82;99635.34;4896846;28;97035;-83
2022/04/23 08:12:40;;;;;;;8.02;5.57;;;;;;;25.89;26.09;99633.66;4862294;28;96762;-84
2022/04/23 08:15:06;;;;;;;7.15;5.50;;;;;;;26.54;25.44;99643.56;4862105;28;101139;-82
2022/04/23 08:17:33;;;;;;;7.82;5.13;;;;;;;26.96;24.85;99631.66;4878417;28;98488;-82
2022/04/23 08:19:59;;;;;;;5.43;4.93;;;;;;;26.72;24.89;99638.81;4893710;28;96775;-81
2022/04/23 08:22:25;;;;;;;5.22;4.72;;;;;;;26.36;24.66;99628.44;4849246;28;96982;-82
2022/04/23 08:24:50;;;;;;;6.57;5.07;;;;;;;26.35;24.56;99607.06;4880878;28;101437;-82
2022/04/23 08:27:16;;;;;;;6.78;4.80;;;;;;;26.90;24.99;99632.34;4881843;28;101604;-82
2022/04/23 08:32:26;;;;;;;11.77;5.75;;;;;;;27.18;24.55;99619.31;4868204;28;96926;-82
2022/04/23 08:34:51;;;;;;;6.90;5.35;;;;;;;27.50;24.53;99613.72;4864242;28;101431;-82
2022/04/23 08:37:17;;;;;;;5.57;5.07;;;;;;;27.10;24.17;99612.91;4850054;28;101346;-82
2022/04/23 08:39:43;;;;;;;5.43;4.70;;;;;;;26.91;24.56;99607.97;4864939;28;96775;-82
2022/04/23 08:42:09;;;;;;;5.45;4.95;;;;;;;26.84;24.61;99618.56;4865683;28;96622;-82
2022/04/23 08:44:37;;;;;;;6.05;5.45;;;;;;;27.51;24.35;99610.00;4880763;28;97980;-82
2022/04/23 08:47:04;;;;;;;6.38;5.38;;;;;;;28.18;24.12;99619.28;4881476;28;101363;-82
2022/04/23 08:49:34;;;;;;;6.75;5.82;;;;;;;28.42;23.30;99613.69;4897015;28;96736;-82
2022/04/23 08:52:18;;;;;;;6.17;5.57;;;;;;;28.78;23.51;99595.91;4881785;28;97002;-82
2022/04/23 08:54:44;;;;;;;4.68;4.28;;;;;;;29.18;22.78;99605.38;4880690;28;98379;-82
2022/04/23 08:57:10;;;;;;;6.65;4.95;;;;;;;28.80;22.67;99599.25;4880755;28;101367;-81
2022/04/23 08:59:36;;;;;;;4.60;4.20;;;;;;;28.76;22.47;99589.84;4880172;28;96766;-82
2022/04/23 09:02:14;;;;;;;4.65;4.15;;;;;;;29.17;22.11;99600.97;4897411;28;96991;-82
2022/04/23 09:04:42;;;;;;;6.72;4.70;;;;;;;29.36;22.03;99588.72;4864710;28;98584;-82
2022/04/23 09:07:21;;;;;;;5.90;4.65;;;;;;;28.95;21.74;99583.88;4881346;28;100991;-82
2022/04/23 09:09:51;;;;;;;4.55;4.15;;;;;;;28.75;22.12;99586.31;4880594;28;96739;-82
2022/04/23 09:12:20;;;;;;;;;;;;;;;28.70;22.02;99599.53;4865731;28;96875;-82
2022/04/23 09:14:45;;;;;;;5.00;4.50;;;;;;;28.40;22.62;99596.78;4895835;28;101192;-82
2022/04/23 09:25:36;;;;;;;8.48;3.75;;;;;;;29.03;22.58;99582.94;4882431;28;97580;-83
2022/04/23 09:28:24;;;;;;;6.90;4.95;;;;;;;28.78;23.52;99561.63;4879996;28;101453;-82
2022/04/23 09:30:51;;;;;;;6.00;4.28;;;;;;;28.91;23.39;99579.00;4912572;28;96775;-82
2022/04/23 09:33:18;;;;;;;6.40;5.80;;;;;;;28.76;22.88;99577.16;4896376;28;96874;-82
2022/04/23 09:36:02;;;;;;;7.30;4.55;;;;;;;28.26;22.19;99569.81;4895527;28;100891;-83
2022/04/23 09:38:28;;;;;;;4.63;4.15;;;;;;;27.53;23.42;99583.72;4880327;28;102016;-83
2022/04/23 09:40:56;;;;;;;4.60;4.00;;;;;;;27.41;23.29;99573.53;4864835;28;97219;-83
2022/04/23 09:43:28;;;;;;;4.85;3.72;;;;;;;26.80;24.48;99581.41;4896575;28;96912;-82
2022/04/23 09:46:07;;;;;;;8.75;5.18;;;;;;;25.72;24.65;99571.81;4864174;28;98694;-83
2022/04/23 09:48:33;;;;;;;7.55;4.70;;;;;;;25.38;25.93;99581.88;4896622;28;98014;-85
2022/04/23 09:50:59;;;;;;;5.78;4.85;;;;;;;25.46;26.25;99579.19;4895858;28;96777;-83
2022/04/23 09:53:27;;;;;;;6.22;5.20;;;;;;;25.15;26.11;99576.28;4912880;28;96853;-84
2022/04/23 09:55:59;;;;;;;6.68;4.82;;;;;;;25.41;26.18;99544.75;4863805;28;101196;-83
2022/04/23 09:58:26;;;;;;;4.38;3.97;;;;;;;25.60;25.64;99564.25;4895410;28;101240;-83
2022/04/23 10:00:52;;;;;;;6.65;4.70;;;;;;;25.29;25.77;99560.34;4896115;28;96774;-83
2022/04/23 10:03:18;;;;;;;4.28;3.88;;;;;;;25.21;25.92;99571.06;4880930;28;96784;-82
2022/04/23 10:05:48;;;;;;;5.40;4.65;;;;;;;24.68;25.60;99569.53;4863624;28;101910;-83
2022/04/23 10:08:16;;;;;;;4.10;3.80;;;;;;;24.65;26.23;99582.44;4896469;28;98458;-82
2022/04/23 10:10:50;;;;;;;13.18;4.25;;;;;;;24.43;26.04;99576.63;4895914;28;96700;-82
2022/04/23 10:13:16;;;;;;;4.40;3.78;;;;;;;23.96;26.70;99576.94;4864703;28;96842;-82
2022/04/23 10:15:47;;;;;;;4.20;3.80;;;;;;;23.50;27.17;99576.19;4879422;28;98062;-87
2022/04/23 10:18:13;;;;;;;4.65;4.20;;;;;;;23.42;27.86;99579.66;4880694;28;101637;-81
2022/04/23 10:20:53;;;;;;;6.20;4.35;;;;;;;22.87;28.15;99584.22;4895817;28;96825;-82
2022/04/23 10:23:22;;;;;;;4.68;4.22;;;;;;;22.87;28.08;99585.03;4866343;28;97253;-83
2022/04/23 10:25:49;;;;;;;8.60;4.05;;;;;;;22.95;28.79;99579.84;4896926;28;97972;-83
2022/04/23 10:28:18;;;;;;;3.97;3.58;;;;;;;22.79;29.02;99545.66;4895666;28;101482;-82
2022/04/23 10:30:48;;;;;;;11.70;4.78;;;;;;;23.11;29.39;99573.81;4879278;28;96722;-84
2022/04/23 10:33:25;;;;;;;5.38;3.75;;;;;;;23.16;29.31;99560.81;4896656;28;96866;-82
2022/04/23 10:36:10;;;;;;;5.25;4.38;;;;;;;23.13;28.91;99579.03;4894710;28;97690;-82
2022/04/23 10:38:42;;;;;;;4.50;4.00;;;;;;;22.79;28.45;99568.91;4848488;28;101110;-83
2022/04/23 10:41:10;;;;;;;6.65;4.85;;;;;;;22.79;29.16;99569.72;4879339;28;96846;-82
2022/04/23 10:43:46;;;;;;;3.65;3.35;;;;;;;22.67;29.42;99572.75;4878552;28;96824;-83
2022/04/23 10:46:39;;;;;;;4.63;4.07;;;;;;;22.27;28.69;99571.22;4863945;28;101408;-82
2022/04/23 10:49:23;;;;;;;6.60;4.20;;;;;;;21.93;29.49;99572.53;4875742;28;97432;-82
2022/04/23 10:51:54;;;;;;;6.78;3.88;;;;;;;21.78;29.34;99565.91;4897048;28;96558;-83
2022/04/23 10:54:21;;;;;;;;;;;;;;;21.26;29.97;99573.31;4877523;28;97327;-82
2022/04/23 10:56:57;;;;;;;5.90;3.80;;;;;;;21.21;29.90;99552.41;4895404;28;97964;-83
2022/04/23 10:59:33;;;;;;;4.15;3.75;;;;;;;21.50;30.09;99564.97;4895642;28;101797;-82
2022/04/23 11:02:06;;;;;;;6.15;3.72;;;;;;;21.61;30.34;99558.63;4863385;28;96726;-82
2022/04/23 11:12:14;;;;;;;4.43;3.65;;;;;;;21.52;30.48;99554.13;4895267;28;96882;-83
2022/04/23 11:13:27;;;;;;;8.35;4.47;;;;;;;21.19;30.68;99542.84;4882379;28;98137;-82
2022/04/23 11:16:08;;;;;;;5.32;4.07;;;;;;;21.32;30.79;99556.78;4878571;28;96871;-82
2022/04/23 11:18:35;;;;;;;6.07;5.13;;;;;;;21.04;30.90;99542.41;4894370;28;101096;-83
2022/04/23 11:21:15;;;;;;;5.75;4.70;;;;;;;20.75;31.19;99551.19;4878566;28;101072;-82
2022/04/23 11:23:45;;;;;;;5.07;4.10;;;;;;;20.42;32.08;99530.13;4910324;28;96946;-83
2022/04/23 11:26:12;;;;;;;5.28;4.43;;;;;;;20.51;31.94;99546.19;4895194;28;96989;-81
2022/04/23 11:28:40;;;;;;;5.68;4.95;;;;;;;20.29;32.25;99493.06;4898015;28;101176;-81
2022/04/23 11:31:10;;;;;;;4.93;4.43;;;;;;;20.42;31.98;99535.44;4879038;28;101621;-82
2022/04/23 11:33:36;;;;;;;8.03;5.53;;;;;;;20.26;32.10;99527.97;4878158;28;96746;-82
2022/04/23 11:36:02;;;;;;;6.22;4.85;;;;;;;20.30;32.29;99526.72;4863190;28;96770;-83
2022/04/23 11:38:28;;;;;;;6.95;5.30;;;;;;;20.38;32.44;99531.38;4878844;28;101793;-83
2022/04/23 11:40:54;;;;;;;5.18;4.45;;;;;;;20.36;32.42;99523.50;4878142;28;101505;-82
2022/04/23 11:43:33;;;;;;;6.13;4.20;;;;;;;20.25;32.18;99519.13;4894299;28;96938;-81
2022/04/23 11:46:11;;;;;;;5.13;4.53;;;;;;;20.23;32.20;99526.41;4847240;28;96989;-83
2022/04/23 11:48:48;;;;;;;7.25;5.00;;;;;;;20.15;32.78;99518.22;4894409;28;101496;-82
2022/04/23 11:51:21;;;;;;;5.65;5.00;;;;;;;20.04;33.35;99508.53;4894687;28;101697;-82
2022/04/23 11:53:59;;;;;;;5.28;4.78;;;;;;;20.06;33.37;99516.38;4878714;28;97187;-82